createdAt,value
2022-07-29T00:01:43.026Z,81.08
2022-07-29T00:04:11.084Z,80.60
2022-07-29T00:06:38.784Z,80.69
2022-07-29T00:09:06.581Z,80.64
2022-07-29T00:11:34.243Z,81.00
2022-07-29T00:14:01.797Z,80.60
2022-07-29T00:16:29.593Z,80.85
2022-07-29T00:18:59.537Z,80.95
2022-07-29T00:21:29.739Z,81.07
2022-07-29T00:23:57.739Z,81.13
2022-07-29T00:26:25.440Z,81.17
2022-07-29T00:29:02.077Z,81.24
2022-07-29T00:31:40.542Z,81.69
2022-07-29T00:34:28.337Z,81.81
2022-07-29T00:36:56.466Z,81.22
2022-07-29T00:39:24.509Z,81.63
2022-07-29T00:41:51.973Z,81.65
2022-07-29T00:44:21.113Z,81.57
2022-07-29T00:46:48.906Z,81.80
2022-07-29T00:49:16.495Z,81.59
2022-07-29T00:51:44.448Z,81.85
2022-07-29T00:54:12.364Z,81.99
2022-07-29T00:56:40.215Z,81.88
2022-07-29T00:59:07.910Z,81.86
2022-07-29T01:01:35.471Z,81.97
2022-07-29T01:04:03.011Z,81.79
2022-07-29T01:06:31.311Z,81.73
2022-07-29T01:08:59.872Z,81.68
2022-07-29T01:11:27.337Z,81.70
2022-07-29T01:13:55.401Z,81.69
2022-07-29T01:16:31.998Z,81.31
2022-07-29T01:19:14.345Z,81.21
2022-07-29T01:22:00.570Z,81.49
2022-07-29T01:24:33.963Z,81.37
2022-07-29T01:27:33.942Z,81.19
2022-07-29T01:30:05.256Z,80.82
2022-07-29T01:32:36.694Z,81.04
2022-07-29T01:35:28.391Z,80.90
2022-07-29T01:38:06.741Z,81.01
2022-07-29T01:40:55.465Z,80.92
2022-07-29T01:43:41.787Z,80.94
2022-07-29T01:46:16.441Z,80.78
2022-07-29T01:48:48.723Z,80.94
2022-07-29T01:51:25.787Z,80.56
2022-07-29T01:54:16.361Z,82.25
2022-07-29T01:56:46.543Z,81.07
2022-07-29T01:59:14.286Z,80.73
2022-07-29T02:01:44.080Z,80.55
2022-07-29T02:04:28.859Z,80.16
2022-07-29T02:07:01.919Z,79.34
2022-07-29T02:09:31.667Z,77.27
2022-07-29T02:12:01.072Z,74.55
2022-07-29T02:14:32.964Z,71.79
2022-07-29T02:17:01.970Z,70.24
2022-07-29T02:19:32.449Z,68.73
2022-07-29T02:22:01.976Z,66.97
2022-07-29T02:24:32.084Z,65.33
2022-07-29T02:27:00.893Z,62.83
2022-07-29T02:29:32.818Z,61.20
2022-07-29T02:32:02.339Z,59.20
2022-07-29T02:34:31.361Z,57.84
2022-07-29T02:37:00.974Z,57.72
2022-07-29T02:39:30.659Z,59.06
2022-07-29T02:42:09.778Z,60.75
2022-07-29T02:44:37.638Z,61.58
2022-07-29T02:47:31.995Z,62.70
2022-07-29T02:50:09.954Z,63.61
2022-07-29T02:52:46.613Z,64.02
2022-07-29T02:55:42.109Z,65.02
2022-07-29T02:58:54.689Z,65.95
2022-07-29T03:01:25.000Z,65.98
2022-07-29T03:03:55.167Z,65.83
2022-07-29T03:06:28.115Z,63.45
2022-07-29T03:09:13.249Z,59.13
2022-07-29T03:11:49.627Z,54.37
2022-07-29T03:14:20.977Z,51.18
2022-07-29T03:16:50.685Z,48.13
2022-07-29T03:19:19.395Z,45.64
2022-07-29T03:21:47.279Z,43.67
2022-07-29T03:24:32.589Z,42.43
2022-07-29T03:27:01.248Z,40.24
2022-07-29T03:29:33.567Z,38.24
2022-07-29T03:32:07.222Z,36.70
2022-07-29T03:34:36.415Z,35.24
2022-07-29T03:37:03.839Z,33.49
2022-07-29T03:39:36.886Z,32.45
2022-07-29T03:42:07.887Z,31.42
2022-07-29T03:44:36.819Z,30.38
2022-07-29T03:47:07.709Z,29.08
2022-07-29T03:49:38.100Z,28.25
2022-07-29T03:52:07.065Z,27.09
2022-07-29T03:54:35.286Z,26.01
2022-07-29T03:57:07.118Z,24.83
2022-07-29T03:59:35.444Z,24.84
2022-07-29T04:02:08.039Z,24.61
2022-07-29T04:04:37.274Z,23.87
2022-07-29T04:07:05.490Z,23.49
2022-07-29T04:09:33.613Z,23.32
2022-07-29T04:12:04.088Z,22.72
2022-07-29T04:14:33.501Z,22.46
2022-07-29T04:17:02.907Z,21.83
2022-07-29T04:19:30.230Z,21.58
2022-07-29T04:21:58.672Z,21.05
2022-07-29T04:24:26.696Z,20.27
2022-07-29T04:26:54.267Z,20.66
2022-07-29T04:29:22.013Z,20.61
2022-07-29T04:31:49.592Z,19.85
2022-07-29T04:34:17.498Z,19.26
2022-07-29T04:36:45.571Z,19.47
2022-07-29T04:39:13.019Z,19.06
2022-07-29T04:41:40.590Z,19.31
2022-07-29T04:44:10.712Z,19.17
2022-07-29T04:46:38.538Z,19.02
2022-07-29T04:49:06.273Z,19.11
2022-07-29T04:51:34.114Z,18.67
2022-07-29T04:54:02.409Z,18.19
2022-07-29T04:56:29.990Z,17.85
2022-07-29T04:58:57.522Z,17.25
2022-07-29T05:01:25.289Z,17.47
2022-07-29T05:03:56.999Z,16.91
2022-07-29T05:06:27.533Z,16.87
2022-07-29T05:08:55.096Z,17.04
2022-07-29T05:11:24.929Z,16.47
2022-07-29T05:13:54.852Z,16.55
2022-07-29T05:16:22.753Z,16.14
2022-07-29T05:18:50.341Z,16.42
2022-07-29T05:21:17.837Z,16.38
2022-07-29T05:23:45.110Z,16.06
2022-07-29T05:26:13.210Z,15.96
2022-07-29T05:28:40.790Z,16.36
2022-07-29T05:31:08.154Z,17.52
2022-07-29T05:33:37.101Z,17.19
2022-07-29T05:36:08.523Z,17.23
2022-07-29T05:38:37.160Z,18.18
2022-07-29T05:41:06.287Z,17.50
2022-07-29T05:43:34.312Z,17.29
2022-07-29T05:46:02.087Z,16.98
2022-07-29T05:48:29.561Z,16.71
2022-07-29T05:50:57.459Z,16.03
2022-07-29T05:53:24.831Z,16.25
2022-07-29T05:55:53.458Z,15.43
2022-07-29T05:58:21.149Z,14.98
2022-07-29T06:00:48.579Z,15.59
2022-07-29T06:03:15.853Z,17.02
2022-07-29T06:05:43.401Z,17.51
2022-07-29T06:08:10.938Z,17.19
2022-07-29T06:10:39.333Z,16.31
2022-07-29T06:13:06.716Z,16.50
2022-07-29T06:15:34.525Z,16.10
2022-07-29T06:18:02.559Z,15.99
2022-07-29T06:20:32.394Z,15.77
2022-07-29T06:23:01.132Z,14.75
2022-07-29T06:25:32.086Z,14.54
2022-07-29T06:27:59.943Z,14.52
2022-07-29T06:30:27.887Z,15.27
2022-07-29T06:32:56.406Z,15.91
2022-07-29T06:35:37.689Z,15.13
2022-07-29T06:38:12.012Z,15.33
2022-07-29T06:41:09.182Z,14.84
2022-07-29T06:43:52.305Z,14.45
2022-07-29T06:46:23.833Z,15.39
2022-07-29T06:48:53.077Z,14.67
2022-07-29T06:51:23.038Z,14.11
2022-07-29T06:54:01.728Z,14.08
2022-07-29T06:56:42.917Z,14.21
2022-07-29T06:59:12.525Z,13.83
2022-07-29T07:01:42.134Z,14.19
2022-07-29T07:04:10.451Z,13.70
2022-07-29T07:06:38.969Z,13.06
2022-07-29T07:09:07.049Z,13.08
2022-07-29T07:11:35.020Z,12.80
2022-07-29T07:14:04.120Z,12.84
2022-07-29T07:16:33.301Z,12.46
2022-07-29T07:19:01.433Z,12.62
2022-07-29T07:21:30.476Z,11.68
2022-07-29T07:24:00.436Z,11.44
2022-07-29T07:26:28.963Z,11.84
2022-07-29T07:28:57.278Z,11.71
2022-07-29T07:31:25.343Z,11.30
2022-07-29T07:33:54.550Z,11.90
2022-07-29T07:36:22.899Z,12.25
2022-07-29T07:38:50.773Z,14.02
2022-07-29T07:41:18.097Z,14.10
2022-07-29T07:43:45.833Z,13.59
2022-07-29T07:46:13.544Z,13.30
2022-07-29T07:48:41.786Z,13.45
2022-07-29T07:51:09.907Z,14.62
2022-07-29T07:53:37.548Z,15.59
2022-07-29T07:56:11.025Z,15.10
2022-07-29T07:58:40.210Z,14.71
2022-07-29T08:01:08.388Z,15.57
2022-07-29T08:03:36.027Z,16.06
2022-07-29T08:06:05.109Z,15.40
2022-07-29T08:08:32.670Z,15.47
2022-07-29T08:11:02.261Z,16.15
2022-07-29T08:13:33.786Z,15.38
2022-07-29T08:16:12.862Z,16.19
2022-07-29T08:18:42.302Z,17.22
2022-07-29T08:21:10.446Z,17.92
2022-07-29T08:23:49.642Z,18.16
2022-07-29T08:26:23.655Z,18.50
2022-07-29T08:28:52.185Z,19.83
2022-07-29T08:31:19.794Z,20.77
2022-07-29T08:33:47.133Z,21.36
2022-07-29T08:36:15.402Z,21.34
2022-07-29T08:38:42.965Z,21.53
2022-07-29T08:41:10.780Z,22.04
2022-07-29T08:43:42.181Z,22.62
2022-07-29T08:46:09.869Z,22.75
2022-07-29T08:48:37.851Z,23.02
2022-07-29T08:51:09.225Z,23.74
2022-07-29T08:53:39.317Z,23.80
2022-07-29T08:56:07.218Z,24.89
2022-07-29T08:58:36.827Z,25.36
2022-07-29T09:01:06.880Z,25.67
2022-07-29T09:03:38.368Z,25.93
2022-07-29T09:06:06.598Z,26.32
2022-07-29T09:08:34.816Z,26.57
2022-07-29T09:11:03.845Z,26.87
2022-07-29T09:13:31.646Z,26.15
2022-07-29T09:15:59.516Z,26.84
2022-07-29T09:18:39.008Z,28.29
2022-07-29T09:21:31.533Z,28.72
2022-07-29T09:24:03.634Z,28.80
2022-07-29T09:26:33.168Z,29.52
2022-07-29T09:29:01.001Z,29.45
2022-07-29T09:31:36.985Z,28.82
2022-07-29T09:34:05.694Z,29.09
2022-07-29T09:36:40.543Z,28.71
2022-07-29T09:39:08.525Z,28.09
2022-07-29T09:41:54.150Z,27.54
2022-07-29T09:44:23.465Z,27.88
2022-07-29T09:47:09.098Z,28.07
2022-07-29T09:49:52.349Z,28.86
2022-07-29T09:52:20.968Z,29.32
2022-07-29T09:54:48.718Z,29.55
2022-07-29T09:57:31.189Z,30.39
2022-07-29T10:00:06.981Z,29.89
2022-07-29T10:02:44.539Z,29.79
2022-07-29T10:05:36.561Z,30.34
2022-07-29T10:08:04.945Z,30.51
2022-07-29T10:10:37.923Z,31.38
2022-07-29T10:13:15.350Z,31.08
2022-07-29T10:15:46.958Z,31.27
2022-07-29T10:18:18.702Z,30.86
2022-07-29T10:20:46.428Z,31.53
2022-07-29T10:23:13.828Z,31.46
2022-07-29T10:25:45.893Z,31.77
2022-07-29T10:28:16.443Z,32.33
2022-07-29T10:30:47.117Z,32.58
2022-07-29T10:33:17.712Z,32.17
2022-07-29T10:36:07.133Z,32.63
2022-07-29T10:39:22.336Z,32.77
2022-07-29T10:42:34.203Z,32.54
2022-07-29T10:45:04.608Z,32.44
2022-07-29T10:47:35.215Z,32.67
2022-07-29T10:50:05.884Z,32.83
2022-07-29T10:52:51.614Z,32.47
2022-07-29T10:55:49.575Z,32.52
2022-07-29T10:58:20.377Z,32.86
2022-07-29T11:00:50.884Z,32.12
2022-07-29T11:03:50.454Z,33.30
2022-07-29T11:06:26.802Z,33.21
2022-07-29T11:09:27.359Z,32.67
2022-07-29T11:12:25.558Z,32.29
2022-07-29T11:15:00.546Z,31.86
2022-07-29T11:17:47.208Z,31.53
2022-07-29T11:20:41.736Z,31.74
2022-07-29T11:23:33.395Z,32.47
2022-07-29T11:26:23.602Z,31.29
2022-07-29T11:29:00.691Z,31.39
2022-07-29T11:31:43.401Z,32.14
2022-07-29T11:34:31.994Z,32.18
2022-07-29T11:37:08.872Z,32.22
2022-07-29T11:39:54.157Z,32.77
2022-07-29T11:42:28.352Z,32.22
2022-07-29T11:45:41.477Z,33.21
2022-07-29T11:50:50.887Z,33.25
2022-07-29T11:53:18.983Z,33.09
2022-07-29T11:55:55.535Z,33.40
2022-07-29T11:58:27.441Z,33.06
2022-07-29T12:00:56.254Z,33.65
2022-07-29T12:03:33.300Z,33.59
2022-07-29T12:06:13.583Z,33.94
2022-07-29T12:08:44.123Z,34.01
2022-07-29T12:11:22.658Z,34.49
2022-07-29T12:13:54.445Z,34.49
2022-07-29T12:16:25.653Z,34.22
2022-07-29T12:19:02.384Z,34.26
2022-07-29T12:21:53.619Z,34.26
2022-07-29T12:24:26.468Z,34.89
2022-07-29T12:26:59.592Z,35.75
2022-07-29T12:29:34.831Z,34.78
2022-07-29T12:32:05.459Z,34.94
2022-07-29T12:34:33.642Z,35.46
2022-07-29T12:37:02.375Z,34.50
2022-07-29T12:39:29.933Z,34.84
2022-07-29T12:42:04.848Z,35.13
2022-07-29T12:44:45.634Z,35.12
2022-07-29T12:47:13.767Z,35.45
2022-07-29T12:49:41.507Z,34.88
2022-07-29T12:52:32.301Z,34.56
2022-07-29T12:55:00.149Z,34.48
2022-07-29T12:57:28.766Z,34.52
2022-07-29T13:00:09.189Z,34.13
2022-07-29T13:02:37.531Z,34.35
2022-07-29T13:05:06.402Z,34.37
2022-07-29T13:07:53.966Z,35.05
2022-07-29T13:10:24.409Z,34.52
2022-07-29T13:13:07.063Z,34.52
2022-07-29T13:15:35.092Z,34.98
2022-07-29T13:18:02.686Z,34.33
2022-07-29T13:20:31.676Z,33.79
2022-07-29T13:23:01.381Z,34.01
2022-07-29T13:25:31.271Z,33.88
2022-07-29T13:28:00.949Z,34.17
2022-07-29T13:30:28.565Z,34.13
2022-07-29T13:32:56.287Z,34.54
2022-07-29T13:35:24.019Z,34.38
2022-07-29T13:37:52.127Z,35.04
2022-07-29T13:40:19.889Z,35.33
2022-07-29T13:42:47.771Z,34.87
2022-07-29T13:45:15.772Z,35.16
2022-07-29T13:47:47.674Z,35.39
2022-07-29T13:50:17.600Z,35.43
2022-07-29T13:52:45.236Z,35.51
2022-07-29T13:55:12.830Z,35.43
2022-07-29T13:57:41.580Z,35.17
2022-07-29T14:00:10.414Z,35.34
2022-07-29T14:02:39.489Z,35.74
2022-07-29T14:05:08.828Z,35.07
2022-07-29T14:07:38.422Z,34.56
2022-07-29T14:10:08.394Z,33.77
2022-07-29T14:12:36.346Z,34.82
2022-07-29T14:15:04.140Z,34.14
2022-07-29T14:17:31.451Z,34.83
2022-07-29T14:19:59.527Z,34.86
2022-07-29T14:22:27.128Z,35.09
2022-07-29T14:24:54.652Z,34.85
2022-07-29T14:27:38.061Z,35.55
2022-07-29T14:30:07.490Z,35.58
2022-07-29T14:32:35.395Z,36.56
2022-07-29T14:35:02.902Z,36.92
2022-07-29T14:37:39.965Z,37.91
2022-07-29T14:40:10.032Z,37.51
2022-07-29T14:42:38.797Z,37.19
2022-07-29T14:45:08.119Z,36.70
2022-07-29T14:47:36.705Z,37.61
2022-07-29T14:50:06.077Z,37.19
2022-07-29T14:52:33.502Z,37.01
2022-07-29T14:55:01.440Z,36.85
2022-07-29T14:57:30.337Z,36.96
2022-07-29T14:59:58.134Z,36.88
2022-07-29T15:02:45.685Z,36.65
2022-07-29T15:05:13.986Z,36.60
2022-07-29T15:07:42.013Z,35.76
2022-07-29T15:10:09.645Z,35.79
2022-07-29T15:12:38.486Z,35.88
2022-07-29T15:15:06.680Z,35.49
2022-07-29T15:17:34.399Z,35.11
2022-07-29T15:20:01.822Z,35.04
2022-07-29T15:22:31.410Z,35.59
2022-07-29T15:24:58.956Z,36.04
2022-07-29T15:27:26.634Z,36.03
2022-07-29T15:29:54.595Z,37.17
2022-07-29T15:32:22.115Z,37.04
2022-07-29T15:34:49.527Z,37.36
2022-07-29T15:37:17.123Z,37.54
2022-07-29T15:39:44.503Z,37.42
2022-07-29T15:42:11.778Z,37.61
2022-07-29T15:44:39.787Z,38.14
2022-07-29T15:47:08.009Z,38.51
2022-07-29T15:49:46.549Z,38.74
2022-07-29T15:52:25.848Z,38.81
2022-07-29T15:54:56.239Z,38.70
2022-07-29T15:57:24.822Z,38.29
2022-07-29T15:59:55.209Z,38.22
2022-07-29T16:02:22.610Z,38.52
2022-07-29T16:04:50.564Z,38.96
2022-07-29T16:07:18.466Z,39.83
2022-07-29T16:09:50.763Z,40.28
2022-07-29T16:12:21.327Z,40.76
2022-07-29T16:14:51.064Z,40.63
2022-07-29T16:17:18.948Z,41.20
2022-07-29T16:19:47.007Z,41.09
2022-07-29T16:22:14.853Z,40.94
2022-07-29T16:24:42.520Z,41.49
2022-07-29T16:27:10.173Z,42.15
2022-07-29T16:29:37.944Z,42.35
2022-07-29T16:32:06.393Z,42.85
2022-07-29T16:34:34.270Z,43.34
2022-07-29T16:37:02.197Z,43.40
2022-07-29T16:39:30.062Z,43.89
2022-07-29T16:42:00.801Z,43.92
2022-07-29T16:44:29.161Z,44.55
2022-07-29T16:46:59.326Z,44.41
2022-07-29T16:49:28.333Z,44.56
2022-07-29T16:51:56.015Z,44.75
2022-07-29T16:54:23.787Z,44.84
2022-07-29T16:56:51.656Z,45.45
2022-07-29T16:59:19.184Z,44.86
2022-07-29T17:01:46.519Z,45.59
2022-07-29T17:04:15.358Z,46.35
2022-07-29T17:06:43.262Z,46.68
2022-07-29T17:09:12.394Z,46.82
2022-07-29T17:11:54.049Z,46.80
2022-07-29T17:14:29.464Z,47.12
2022-07-29T17:17:01.582Z,47.43
2022-07-29T17:19:31.364Z,47.75
2022-07-29T17:22:10.117Z,47.73
2022-07-29T17:24:41.213Z,47.98
2022-07-29T17:27:10.471Z,48.22
2022-07-29T17:29:39.247Z,48.74
2022-07-29T17:32:08.127Z,48.49
2022-07-29T17:34:37.545Z,48.86
2022-07-29T17:37:06.656Z,49.16
2022-07-29T17:39:35.964Z,49.16
2022-07-29T17:42:05.089Z,49.15
2022-07-29T17:44:36.295Z,49.72
2022-07-29T17:47:05.283Z,49.95
2022-07-29T17:49:36.357Z,49.80
2022-07-29T17:52:05.081Z,49.78
2022-07-29T17:54:32.891Z,50.56
2022-07-29T17:57:00.770Z,50.66
2022-07-29T17:59:28.532Z,51.50
2022-07-29T18:01:56.669Z,50.68
2022-07-29T18:04:24.343Z,51.46
2022-07-29T18:06:51.836Z,51.67
2022-07-29T18:09:20.394Z,51.90
2022-07-29T18:11:48.984Z,52.11
2022-07-29T18:14:17.130Z,52.48
2022-07-29T18:16:46.641Z,53.12
2022-07-29T18:19:14.545Z,53.83
2022-07-29T18:21:51.908Z,53.10
2022-07-29T18:24:27.823Z,53.51
2022-07-29T18:26:55.561Z,51.93
2022-07-29T18:29:22.943Z,51.92
2022-07-29T18:31:51.001Z,51.76
2022-07-29T18:34:18.745Z,51.69
2022-07-29T18:36:46.566Z,51.49
2022-07-29T18:39:19.176Z,51.71
2022-07-29T18:41:52.130Z,52.26
2022-07-29T18:44:22.046Z,52.38
2022-07-29T18:46:52.442Z,52.17
2022-07-29T18:49:21.942Z,53.05
2022-07-29T18:51:50.530Z,53.07
2022-07-29T18:54:18.242Z,53.11
2022-07-29T18:56:49.226Z,53.33
2022-07-29T18:59:21.607Z,53.33
2022-07-29T19:01:49.835Z,53.65
2022-07-29T19:04:18.187Z,53.63
2022-07-29T19:06:45.862Z,53.64
2022-07-29T19:09:13.551Z,53.79
2022-07-29T19:11:41.242Z,53.93
2022-07-29T19:14:08.911Z,53.94
2022-07-29T19:16:36.605Z,54.25
2022-07-29T19:19:04.972Z,54.48
2022-07-29T19:21:32.661Z,55.10
2022-07-29T19:24:06.287Z,55.18
2022-07-29T19:26:36.827Z,55.66
2022-07-29T19:29:04.712Z,55.69
2022-07-29T19:31:32.097Z,55.77
2022-07-29T19:33:59.759Z,55.74
2022-07-29T19:36:27.899Z,55.72
2022-07-29T19:38:55.838Z,55.92
2022-07-29T19:41:24.533Z,56.22
2022-07-29T19:43:53.189Z,56.83
2022-07-29T19:46:21.983Z,56.91
2022-07-29T19:48:50.238Z,56.99
2022-07-29T19:51:18.184Z,57.04
2022-07-29T19:53:45.625Z,57.28
2022-07-29T19:56:13.253Z,57.50
2022-07-29T19:58:41.329Z,57.69
2022-07-29T20:01:10.807Z,58.27
2022-07-29T20:03:40.281Z,57.98
2022-07-29T20:06:08.769Z,58.32
2022-07-29T20:08:36.486Z,58.27
2022-07-29T20:11:03.991Z,58.68
2022-07-29T20:13:33.563Z,58.58
2022-07-29T20:16:02.378Z,58.78
2022-07-29T20:18:29.990Z,59.01
2022-07-29T20:21:00.614Z,58.78
2022-07-29T20:23:28.063Z,58.85
2022-07-29T20:26:00.802Z,58.86
2022-07-29T20:28:28.787Z,59.61
2022-07-29T20:30:56.532Z,59.78
2022-07-29T20:33:23.937Z,59.69
2022-07-29T20:35:51.603Z,59.99
2022-07-29T20:38:19.333Z,60.01
2022-07-29T20:40:46.686Z,60.11
2022-07-29T20:43:14.391Z,60.15
2022-07-29T20:45:42.540Z,60.69
2022-07-29T20:48:10.717Z,61.02
2022-07-29T20:50:38.464Z,61.31
2022-07-29T20:53:06.073Z,61.68
2022-07-29T20:55:33.900Z,61.58
2022-07-29T20:58:01.603Z,61.84
2022-07-29T21:00:29.119Z,62.02
2022-07-29T21:02:56.907Z,62.14
2022-07-29T21:05:25.046Z,62.11
2022-07-29T21:07:57.794Z,62.27
2022-07-29T21:10:26.077Z,62.94
2022-07-29T21:12:53.614Z,62.53
2022-07-29T21:15:21.953Z,62.53
2022-07-29T21:17:49.810Z,62.54
2022-07-29T21:20:19.427Z,62.63
2022-07-29T21:22:47.457Z,62.45
2022-07-29T21:25:15.702Z,62.23
2022-07-29T21:28:02.261Z,62.04
2022-07-29T21:30:30.149Z,62.47
2022-07-29T21:32:57.723Z,62.76
2022-07-29T21:35:35.663Z,62.31
2022-07-29T21:38:13.376Z,62.05
2022-07-29T21:40:40.630Z,62.20
2022-07-29T21:43:08.236Z,61.95
2022-07-29T21:45:37.738Z,62.19
2022-07-29T21:48:06.283Z,62.56
2022-07-29T21:50:34.960Z,62.73
2022-07-29T21:53:03.013Z,62.92
2022-07-29T21:55:32.458Z,62.93
2022-07-29T21:57:59.950Z,62.89
2022-07-29T22:00:29.062Z,63.27
2022-07-29T22:02:56.985Z,63.57
2022-07-29T22:05:24.324Z,63.75
2022-07-29T22:07:56.401Z,63.55
2022-07-29T22:10:29.288Z,63.42
2022-07-29T22:12:58.829Z,63.67
2022-07-29T22:15:27.596Z,63.74
2022-07-29T22:17:55.176Z,63.85
2022-07-29T22:20:23.449Z,63.85
2022-07-29T22:22:51.345Z,63.88
2022-07-29T22:25:18.693Z,63.70
2022-07-29T22:27:46.829Z,63.90
2022-07-29T22:30:14.766Z,63.96
2022-07-29T22:32:42.627Z,64.01
2022-07-29T22:35:10.692Z,64.22
2022-07-29T22:37:39.504Z,64.16
2022-07-29T22:40:07.748Z,64.35
2022-07-29T22:42:35.825Z,64.63
2022-07-29T22:45:10.454Z,64.67
2022-07-29T22:47:48.189Z,64.75
2022-07-29T22:50:16.770Z,64.85
2022-07-29T22:52:45.321Z,64.75
2022-07-29T22:55:13.233Z,64.52
2022-07-29T22:57:40.797Z,64.59
2022-07-29T23:00:09.504Z,64.52
2022-07-29T23:02:37.543Z,64.77
2022-07-29T23:05:05.492Z,64.65
2022-07-29T23:07:34.989Z,64.88
2022-07-29T23:10:03.189Z,64.42
2022-07-29T23:12:31.613Z,64.49
2022-07-29T23:14:59.605Z,64.60
2022-07-29T23:17:27.129Z,64.44
2022-07-29T23:19:54.793Z,64.72
2022-07-29T23:22:22.331Z,64.64
2022-07-29T23:24:49.950Z,64.64
2022-07-29T23:27:17.859Z,64.82
2022-07-29T23:29:45.470Z,64.90
2022-07-29T23:32:12.993Z,64.65
2022-07-29T23:34:40.643Z,64.69
2022-07-29T23:37:08.778Z,64.53
2022-07-29T23:39:36.450Z,64.62
2022-07-29T23:42:04.959Z,64.68
2022-07-29T23:44:33.013Z,64.62
2022-07-29T23:47:00.639Z,64.92
2022-07-29T23:49:28.010Z,65.34
2022-07-29T23:51:56.312Z,65.10
2022-07-29T23:54:24.203Z,65.17
2022-07-29T23:56:51.706Z,65.21
2022-07-29T23:59:19.386Z,65.08
